Time;durP1;ratioP1;P1;durP2;ratioP2;P2;SDS_P1;SDS_P2;PMS_P1;PMS_P2;Temp;Humidity;BMP_temperature;BMP_pressure;BME280_temperature;BME280_humidity;BME280_pressure;Samples;Min_cycle;Max_cycle;Signal;HPM_P1;HPM_P2
2022/06/22 00:00:24;;;;;;;;;11.67;11.67;;;;;21.23;57.32;100815.88;5064548;28;45412;-67
2022/06/22 00:02:53;;;;;;;;;13.00;13.00;;;;;21.22;57.69;100800.34;5064877;28;45164;-67
2022/06/22 00:05:31;;;;;;;;;15.33;12.00;;;;;21.16;58.25;100791.00;5064090;28;45176;-67
2022/06/22 00:08:00;;;;;;;;;12.67;12.67;;;;;21.21;57.71;100799.50;5080328;28;47332;-68
2022/06/22 00:10:37;;;;;;;;;12.33;10.00;;;;;21.12;59.04;100802.66;5063036;28;45254;-68
2022/06/22 00:13:04;;;;;;;;;12.67;10.00;;;;;21.19;57.87;100792.47;5063709;28;45226;-67
2022/06/22 00:15:36;;;;;;;;;12.00;12.00;;;;;20.90;59.38;100808.44;5064681;28;45533;-67
2022/06/22 00:18:19;;;;;;;;;13.67;13.33;;;;;20.72;59.71;100810.16;5064268;28;45208;-67
2022/06/22 00:20:50;;;;;;;;;14.67;12.33;;;;;20.84;59.25;100814.81;5064574;28;45233;-68
2022/06/22 00:23:15;;;;;;;;;15.33;14.00;;;;;20.79;59.30;100811.88;5064734;28;45408;-67
2022/06/22 00:25:42;;;;;;;;;13.33;13.00;;;;;20.79;59.42;100800.81;5064790;28;45633;-67
2022/06/22 00:28:34;;;;;;;;;16.00;13.33;;;;;20.69;59.73;100797.63;5064740;28;45676;-67
2022/06/22 00:31:41;;;;;;;;;16.67;14.33;;;;;20.69;60.02;100775.53;5063935;28;45335;-67
2022/06/22 00:34:09;;;;;;;;;17.33;14.00;;;;;20.61;60.31;100795.06;5062612;28;45536;-67
2022/06/22 00:36:56;;;;;;;;;13.67;13.33;;;;;20.46;60.98;100802.72;5063718;28;45597;-67
2022/06/22 00:39:26;;;;;;;;;12.67;11.67;;;;;20.50;61.12;100813.16;5063135;28;46967;-67
2022/06/22 00:41:56;;;;;;;;;15.67;15.33;;;;;20.38;60.87;100797.44;5063864;28;45362;-67
2022/06/22 00:44:25;;;;;;;;;15.00;13.67;;;;;20.32;61.04;100798.22;5064372;28;45365;-67
2022/06/22 00:47:20;;;;;;;;;18.00;10.67;;;;;20.36;61.33;100788.50;5064123;28;45287;-67
2022/06/22 00:49:46;;;;;;;;;13.00;9.00;;;;;20.40;61.55;100773.22;5054324;28;45448;-67
2022/06/22 00:52:24;;;;;;;;;15.67;13.00;;;;;20.35;61.51;100784.03;5062773;28;45386;-67
2022/06/22 00:54:49;;;;;;;;;14.33;14.33;;;;;20.34;61.68;100787.88;5062922;28;45354;-67
2022/06/22 00:57:25;;;;;;;;;14.00;12.67;;;;;20.23;61.32;100791.22;5064693;28;45306;-67
2022/06/22 01:00:04;;;;;;;;;15.00;14.00;;;;;20.23;61.24;100788.47;5063814;28;45427;-68
2022/06/22 01:02:54;;;;;;;;;16.33;15.33;;;;;20.14;62.51;100791.44;5062636;28;45528;-67
2022/06/22 01:05:22;;;;;;;;;13.00;11.00;;;;;20.14;62.30;100796.94;5063903;28;45383;-68
2022/06/22 01:08:00;;;;;;;;;17.50;17.50;;;;;20.14;62.30;100791.44;5062936;28;45654;-68
2022/06/22 01:10:38;;;;;;;;;14.50;14.50;;;;;20.14;62.22;100782.31;5062293;28;46524;-67
2022/06/22 01:13:10;;;;;;;;;16.00;16.00;;;;;20.16;61.54;100789.28;5063561;28;45336;-68
2022/06/22 01:15:48;;;;;;;;;12.33;12.33;;;;;20.08;61.96;100783.13;5062683;28;45329;-68
2022/06/22 01:18:36;;;;;;;;;11.75;10.50;;;;;20.05;61.98;100776.13;5079862;28;45479;-67
2022/06/22 01:21:34;;;;;;;;;13.00;13.00;;;;;20.17;61.79;100779.94;5079258;27;46815;-68
2022/06/22 01:24:28;;;;;;;;;15.33;14.00;;;;;20.24;61.08;100776.38;5079376;27;45428;-67
2022/06/22 01:27:23;;;;;;;;;11.33;11.33;;;;;20.32;60.61;100787.19;5053451;28;45238;-68
2022/06/22 01:29:50;;;;;;;;;13.67;12.33;;;;;20.36;60.63;100789.34;5062484;28;45510;-67
2022/06/22 01:32:21;;;;;;;;;17.00;14.00;;;;;20.36;60.80;100778.31;5061960;28;46447;-67
2022/06/22 01:34:47;;;;;;;;;15.33;14.00;;;;;20.33;60.75;100778.72;5063525;28;45329;-68
2022/06/22 01:37:18;;;;;;;;;14.67;13.00;;;;;20.32;60.63;100782.50;5062216;28;45321;-68
2022/06/22 01:39:43;;;;;;;;;15.00;13.67;;;;;20.27;59.80;100784.22;5062492;28;45335;-68
2022/06/22 01:42:37;;;;;;;;;18.50;15.50;;;;;20.14;61.69;100785.91;5062997;28;45488;-67
2022/06/22 01:45:11;;;;;;;;;18.33;16.00;;;;;20.08;62.32;100781.22;5063151;28;45325;-67
2022/06/22 01:47:41;;;;;;;;;13.67;13.67;;;;;20.05;62.02;100776.13;5079006;28;45392;-67
2022/06/22 01:50:13;;;;;;;;;15.00;15.00;;;;;19.92;62.51;100773.34;5063456;28;45478;-67
2022/06/22 01:52:51;;;;;;;;;16.00;16.00;;;;;20.02;62.38;100779.28;5063175;28;45626;-67
2022/06/22 01:55:31;;;;;;;;;16.67;16.67;;;;;20.02;62.78;100789.47;5062790;28;45219;-67
2022/06/22 01:58:20;;;;;;;;;18.33;17.00;;;;;19.96;62.89;100796.69;5063068;28;45322;-68
2022/06/22 02:00:50;;;;;;;;;13.33;13.33;;;;;19.99;63.57;100793.50;5052767;28;45333;-68
2022/06/22 02:03:27;;;;;;;;;14.00;14.00;;;;;20.23;62.01;100791.22;5062656;28;46474;-67
2022/06/22 02:07:44;;;;;;;;;18.25;17.00;;;;;20.13;61.94;100784.22;5063116;28;45422;-68
2022/06/22 02:08:58;;;;;;;;;17.00;15.67;;;;;20.09;61.86;100793.94;5062764;28;45527;-68
2022/06/22 02:11:29;;;;;;;;;18.67;16.67;;;;;20.13;62.23;100800.75;5061798;28;45591;-67
2022/06/22 02:14:02;;;;;;;;;15.00;13.00;;;;;20.15;62.21;100793.13;5062850;28;46361;-67
2022/06/22 02:17:01;;;;;;;;;17.00;15.00;;;;;20.02;62.42;100790.31;5062498;28;45301;-68
2022/06/22 02:19:30;;;;;;;;;17.00;17.00;;;;;20.02;62.72;100819.81;5058443;28;45520;-68
2022/06/22 02:21:57;;;;;;;;;14.00;12.00;;;;;19.99;62.08;100807.31;5063257;28;45341;-68
2022/06/22 02:24:32;;;;;;;;;14.25;14.00;;;;;19.96;62.53;100810.47;5062527;28;46425;-67
2022/06/22 02:27:22;;;;;;;;;18.33;16.00;;;;;19.97;62.58;100806.66;5069392;28;45194;-67
2022/06/22 02:29:58;;;;;;;;;16.33;14.00;;;;;20.02;62.47;100801.34;5062872;28;45397;-67
2022/06/22 02:32:30;;;;;;;;;18.00;18.00;;;;;20.04;61.62;100796.50;5063102;28;45402;-67
2022/06/22 02:34:56;;;;;;;;;19.00;17.00;;;;;19.98;62.46;100779.94;5062502;28;45523;-68
2022/06/22 02:37:25;;;;;;;;;16.00;16.00;;;;;19.91;63.08;100779.91;5062402;28;45507;-68
2022/06/22 02:39:59;;;;;;;;;14.67;14.00;;;;;19.89;62.22;100782.03;5065579;28;45247;-68
2022/06/22 02:45:11;;;;;;;;;10.33;10.33;;;;;19.90;62.13;100782.88;5065731;28;45231;-68
2022/06/22 02:47:46;;;;;;;;;17.00;16.00;;;;;19.95;61.70;100789.47;5066141;28;45239;-68
2022/06/22 02:50:39;;;;;;;;;13.33;12.33;;;;;19.98;61.92;100774.41;5065901;28;45255;-67
2022/06/22 02:53:14;;;;;;;;;15.00;14.33;;;;;19.93;62.35;100783.31;5065198;28;45274;-66
2022/06/22 02:55:39;;;;;;;;;15.33;13.67;;;;;19.94;62.89;100787.78;5081562;28;46409;-66
2022/06/22 02:58:26;;;;;;;;;15.33;15.33;;;;;19.91;62.30;100790.94;5065866;28;45140;-66
2022/06/22 03:00:53;;;;;;;;;16.00;16.00;;;;;19.82;63.25;100805.97;5065948;28;45204;-67
2022/06/22 03:03:20;;;;;;;;;15.67;14.33;;;;;19.78;62.44;100799.19;5064675;28;45250;-66
2022/06/22 03:05:48;;;;;;;;;16.00;14.33;;;;;19.74;62.53;100776.69;5065863;28;45403;-66
2022/06/22 03:08:15;;;;;;;;;19.00;16.33;;;;;19.67;62.82;100772.19;5064287;28;45377;-67
2022/06/22 03:10:45;;;;;;;;;16.33;14.67;;;;;19.50;63.54;100754.34;5073237;28;45472;-66
2022/06/22 03:13:13;;;;;;;;;16.00;16.00;;;;;19.30;65.00;100752.31;5065939;28;45405;-66
2022/06/22 03:15:39;;;;;;;;;17.25;14.25;;;;;19.15;65.68;100746.09;5065289;28;46631;-66
2022/06/22 03:18:10;;;;;;;;;19.67;17.67;;;;;19.16;65.36;100747.78;5065372;28;45445;-66
2022/06/22 03:20:54;;;;;;;;;18.00;16.33;;;;;19.10;65.72;100754.13;5081247;27;45350;-66
2022/06/22 03:23:26;;;;;;;;;18.75;18.75;;;;;19.16;65.43;100757.97;5064428;28;45284;-65
2022/06/22 03:26:10;;;;;;;;;21.00;17.50;;;;;19.18;65.46;100750.34;5064940;28;46218;-66
2022/06/22 03:28:40;;;;;;;;;20.00;18.25;;;;;19.27;64.00;100750.00;5065243;28;45274;-66
2022/06/22 03:31:13;;;;;;;;;19.25;16.75;;;;;19.28;64.10;100737.91;5064955;28;45357;-66
2022/06/22 03:33:46;;;;;;;;;14.25;13.75;;;;;19.16;64.86;100731.28;5065743;28;45452;-67
2022/06/22 03:36:17;;;;;;;;;20.25;20.00;;;;;18.93;65.96;100720.56;5064911;28;45485;-66
2022/06/22 03:38:50;;;;;;;;;22.50;19.25;;;;;18.74;66.51;100707.53;5065013;28;45329;-66
2022/06/22 03:41:24;;;;;;;;;19.50;18.75;;;;;18.91;65.77;100722.69;5064812;28;45536;-66
2022/06/22 03:43:59;;;;;;;;;19.50;18.00;;;;;18.85;66.26;100734.50;5065359;28;45352;-66
2022/06/22 03:46:35;;;;;;;;;18.75;18.75;;;;;18.89;66.51;100730.28;5064826;28;45445;-66
2022/06/22 03:49:31;;;;;;;;;18.25;18.25;;;;;18.90;66.73;100731.16;5065051;28;45295;-68
2022/06/22 03:52:12;;;;;;;;;19.00;18.50;;;;;18.89;66.70;100718.44;5064149;28;45331;-66
2022/06/22 03:55:09;;;;;;;;;23.00;20.25;;;;;18.71;67.57;100712.59;5065804;28;45363;-66
2022/06/22 03:57:41;;;;;;;;;23.00;20.75;;;;;18.75;66.53;100706.50;5055544;28;46355;-67
2022/06/22 04:00:10;;;;;;;;;18.33;18.33;;;;;18.92;66.45;100707.03;5064210;28;45254;-66
2022/06/22 04:02:36;;;;;;;;;22.25;21.50;;;;;18.98;65.62;100711.72;5064834;28;45675;-69
2022/06/22 04:05:04;;;;;;;;;21.00;19.00;;;;;18.97;66.78;100715.50;5063430;28;45484;-66
2022/06/22 04:07:34;;;;;;;;;16.75;14.50;;;;;18.91;66.61;100708.06;5064267;28;45726;-66
2022/06/22 04:10:00;;;;;;;;;25.00;21.50;;;;;18.97;67.35;100721.88;5064016;28;45503;-67
2022/06/22 04:12:33;;;;;;;;;21.50;21.50;;;;;19.00;68.01;100735.22;5064622;28;45409;-68
2022/06/22 04:15:23;;;;;;;;;23.50;20.50;;;;;19.10;66.54;100737.59;5064713;28;45347;-68
2022/06/22 04:17:54;;;;;;;;;17.00;16.33;;;;;19.11;65.36;100728.28;5063077;28;46961;-66
2022/06/22 04:20:52;;;;;;;;;19.75;16.75;;;;;19.06;66.13;100730.81;5064098;28;45258;-67
2022/06/22 04:23:29;;;;;;;;;26.75;23.00;;;;;18.88;67.20;100741.50;5064422;28;45279;-66
2022/06/22 04:26:00;;;;;;;;;22.25;20.50;;;;;18.80;66.85;100733.41;5064260;28;45234;-66
2022/06/22 04:28:31;;;;;;;;;24.50;22.50;;;;;18.77;66.86;100734.69;5063999;28;45386;-67
2022/06/22 04:30:59;;;;;;;;;20.25;19.25;;;;;18.84;66.62;100742.97;5063613;28;45242;-67
2022/06/22 04:33:53;;;;;;;;;20.25;20.25;;;;;18.73;67.02;100740.75;5064259;28;45373;-69
2022/06/22 04:36:18;;;;;;;;;23.50;21.00;;;;;18.86;67.03;100738.09;5061267;28;45301;-67
2022/06/22 04:38:53;;;;;;;;;24.50;21.75;;;;;18.89;66.97;100740.44;5063300;28;45152;-69
2022/06/22 04:41:35;;;;;;;;;20.50;20.25;;;;;19.03;66.16;100742.22;5063527;28;45242;-67
2022/06/22 04:44:05;;;;;;;;;23.25;19.75;;;;;19.14;65.56;100757.34;5061841;28;45300;-66
2022/06/22 04:46:38;;;;;;;;;18.00;15.25;;;;;19.27;65.32;100761.00;5063832;28;45455;-67
2022/06/22 04:49:08;;;;;;;;;19.25;19.25;;;;;19.39;64.24;100751.09;5063079;28;45398;-67
2022/06/22 04:51:37;;;;;;;;;29.25;23.00;;;;;19.52;64.21;100752.22;5063020;28;45360;-68
2022/06/22 04:54:02;;;;;;;;;25.33;18.67;;;;;19.62;63.02;100747.19;5062849;28;45309;-68
2022/06/22 04:56:33;;;;;;;;;27.00;21.50;;;;;19.65;62.71;100730.25;5063409;28;45304;-67
2022/06/22 04:59:00;;;;;;;;;19.75;19.75;;;;;19.66;63.24;100727.25;5078802;27;47114;-69
2022/06/22 05:01:30;;;;;;;;;18.50;17.75;;;;;19.65;62.91;100742.09;5062368;28;45176;-67
2022/06/22 05:03:59;;;;;;;;;20.00;19.00;;;;;19.66;62.65;100738.28;5062276;28;45272;-68
2022/06/22 05:06:32;;;;;;;;;19.25;19.25;;;;;19.64;62.50;100723.03;5063194;28;45192;-67
2022/06/22 05:09:06;;;;;;;;;24.75;24.25;;;;;19.43;63.95;100715.72;5062247;28;45694;-68
2022/06/22 05:11:43;;;;;;;;;26.00;24.00;;;;;19.30;64.02;100727.53;5062974;28;45460;-67
2022/06/22 05:14:17;;;;;;;;;21.75;20.25;;;;;19.40;63.44;100735.41;5063088;28;45254;-68
2022/06/22 05:16:50;;;;;;;;;21.00;21.00;;;;;19.41;62.92;100734.34;5061388;28;45626;-67
2022/06/22 05:19:17;;;;;;;;;20.25;18.75;;;;;19.42;62.76;100731.41;5061228;28;45881;-68
2022/06/22 05:21:45;;;;;;;;;21.25;17.50;;;;;19.49;63.13;100739.72;5078375;27;45373;-67
2022/06/22 05:24:24;;;;;;;;;23.00;21.25;;;;;19.44;62.97;100726.50;5062612;28;45359;-68
2022/06/22 05:26:52;;;;;;;;;24.00;21.75;;;;;19.25;63.51;100738.31;5062128;28;45374;-67
2022/06/22 05:29:21;;;;;;;;;21.00;20.75;;;;;19.38;63.71;100756.78;5062103;28;46546;-66
2022/06/22 05:31:52;;;;;;;;;19.00;19.00;;;;;19.24;64.07;100746.78;5062511;28;45283;-68
2022/06/22 05:34:24;;;;;;;;;20.75;17.25;;;;;19.30;64.41;100755.06;5078346;28;45298;-69
2022/06/22 05:36:57;;;;;;;;;23.00;21.50;;;;;19.35;64.46;100755.31;5061227;28;45436;-66
2022/06/22 05:39:22;;;;;;;;;20.25;18.00;;;;;19.23;64.43;100726.66;5062066;28;45504;-67
2022/06/22 05:41:48;;;;;;;;;23.75;22.50;;;;;19.17;64.80;100732.97;5062004;28;45342;-67
2022/06/22 05:44:17;;;;;;;;;21.75;19.50;;;;;19.37;63.66;100739.41;5060954;28;45251;-68
2022/06/22 05:46:51;;;;;;;;;22.50;21.50;;;;;19.29;63.87;100736.84;5061266;28;45338;-68
2022/06/22 05:49:17;;;;;;;;;11.25;11.25;;;;;19.22;64.79;100730.44;5062243;28;46069;-68
2022/06/22 05:51:48;;;;;;;;;25.25;24.25;;;;;19.36;63.59;100734.97;5062260;28;45273;-67
2022/06/22 05:54:28;;;;;;;;;21.75;20.75;;;;;19.27;64.35;100722.44;5061970;28;45310;-68
2022/06/22 05:57:22;;;;;;;;;16.25;14.00;;;;;19.38;64.04;100729.25;5061728;28;45318;-68
2022/06/22 06:00:00;;;;;;;;;23.50;20.50;;;;;19.40;64.02;100743.66;5061351;28;46937;-66
2022/06/22 06:02:31;;;;;;;;;20.00;20.00;;;;;19.37;64.71;100741.31;5061897;28;45262;-67
2022/06/22 06:05:23;;;;;;;;;22.50;20.25;;;;;19.45;63.73;100732.88;5060668;28;45333;-67
2022/06/22 06:07:53;;;;;;;;;23.25;20.25;;;;;19.45;64.10;100725.47;5060642;28;45236;-67
2022/06/22 06:10:20;;;;;;;;;21.00;19.25;;;;;19.23;64.96;100726.66;5075360;28;47185;-66
2022/06/22 06:12:56;;;;;;;;;23.75;21.25;;;;;19.23;65.16;100718.38;5059679;28;45321;-68
2022/06/22 06:15:22;;;;;;;;;22.25;21.50;;;;;19.01;65.90;100716.78;5067933;28;45374;-68
2022/06/22 06:17:54;;;;;;;;;23.75;23.75;;;;;19.08;65.72;100728.69;5068720;28;45517;-66
2022/06/22 06:20:28;;;;;;;;;29.00;22.75;;;;;19.17;65.75;100724.72;5066343;28;46801;-67
2022/06/22 06:23:00;;;;;;;;;25.00;23.00;;;;;19.15;66.22;100731.47;5066292;28;45389;-67
2022/06/22 06:28:23;;;;;;;;;19.25;19.25;;;;;18.97;66.09;100732.03;5056023;28;45271;-67
2022/06/22 06:30:53;;;;;;;;;23.75;21.25;;;;;19.00;66.45;100728.84;5064944;28;46303;-67
2022/06/22 06:33:27;;;;;;;;;23.75;23.50;;;;;18.86;66.80;100735.34;5046225;28;45324;-69
2022/06/22 06:35:57;;;;;;;;;24.00;21.50;;;;;18.87;67.04;100721.38;5065403;28;45503;-67
2022/06/22 06:38:33;;;;;;;;;21.00;21.00;;;;;19.14;67.08;100729.81;5066925;28;45479;-69
2022/06/22 06:41:17;;;;;;;;;24.75;24.00;;;;;19.31;65.76;100723.72;5068420;28;45696;-70
2022/06/22 06:43:57;;;;;;;;;22.00;22.00;;;;;19.39;64.66;100709.75;5066591;28;45324;-67
2022/06/22 06:46:30;;;;;;;;;22.50;21.50;;;;;19.42;65.11;100727.78;5066172;28;45274;-68
2022/06/22 06:49:22;;;;;;;;;25.75;24.75;;;;;19.28;65.30;100721.38;5067660;28;45294;-68
2022/06/22 06:51:54;;;;;;;;;25.75;25.75;;;;;19.41;65.25;100735.22;5066075;28;45413;-68
2022/06/22 06:54:36;;;;;;;;;24.25;23.50;;;;;19.55;64.97;100733.38;5068163;28;45433;-68
2022/06/22 06:57:07;;;;;;;;;27.25;24.75;;;;;19.63;64.67;100733.19;5067738;28;45218;-68
2022/06/22 06:59:33;;;;;;;;;24.00;23.50;;;;;19.60;64.13;100730.84;5067831;28;45310;-67
2022/06/22 07:02:05;;;;;;;;;18.67;17.33;;;;;19.65;63.78;100742.09;5067549;28;45334;-67
2022/06/22 07:04:33;;;;;;;;;22.00;18.33;;;;;19.79;63.88;100741.09;5068243;28;45363;-68
2022/06/22 07:07:15;;;;;;;;;23.33;21.67;;;;;19.97;62.68;100734.09;5068128;28;45406;-68
2022/06/22 07:09:41;;;;;;;;;22.67;20.67;;;;;20.09;62.97;100744.28;5066506;28;45410;-67
2022/06/22 07:12:43;;;;;;;;;27.25;23.50;;;;;20.10;62.12;100743.22;5067194;28;45500;-67
2022/06/22 07:15:16;;;;;;;;;20.75;20.75;;;;;20.17;62.74;100752.38;5067958;27;45234;-67
2022/06/22 07:17:43;;;;;;;;;22.50;19.75;;;;;20.22;62.73;100737.97;5067351;28;45348;-67
2022/06/22 07:20:24;;;;;;;;;20.50;20.50;;;;;20.31;62.63;100742.19;5066271;28;45633;-69
2022/06/22 07:23:22;;;;;;;;;21.50;20.50;;;;;20.38;62.49;100737.53;5067065;28;45809;-66
2022/06/22 07:25:52;;;;;;;;;24.00;22.25;;;;;20.43;62.37;100732.25;5061962;28;45534;-69
2022/06/22 07:28:31;;;;;;;;;23.00;20.00;;;;;20.33;62.87;100722.66;5064387;28;45410;-69
2022/06/22 07:31:15;;;;;;;;;27.50;24.00;;;;;20.47;61.23;100721.63;5063156;28;45499;-68
2022/06/22 07:33:47;;;;;;;;;18.75;17.00;;;;;20.33;61.94;100719.91;5063951;28;46146;-68
2022/06/22 07:36:31;;;;;;;;;22.75;21.25;;;;;20.22;61.94;100721.41;5063168;28;45365;-67
2022/06/22 07:39:13;;;;;;;;;23.50;22.00;;;;;20.23;62.69;100716.75;5063735;28;45413;-69
2022/06/22 07:41:38;;;;;;;;;21.25;19.50;;;;;20.32;61.93;100726.47;5063653;28;45164;-68
2022/06/22 07:44:24;;;;;;;;;26.25;23.75;;;;;20.35;61.81;100735.22;5062987;28;45362;-67
2022/06/22 07:47:00;;;;;;;;;26.50;21.75;;;;;20.32;62.09;100738.38;5061945;28;45584;-67
2022/06/22 07:49:31;;;;;;;;;28.00;25.00;;;;;20.18;61.86;100733.91;5063568;28;45297;-66
2022/06/22 07:52:02;;;;;;;;;32.00;27.50;;;;;20.24;62.64;100741.34;5063817;28;45217;-68
2022/06/22 07:54:36;;;;;;;;;36.00;32.00;;;;;20.16;62.29;100744.31;5063665;28;45554;-69
2022/06/22 07:57:40;;;;;;;;;33.25;27.50;;;;;20.25;62.07;100743.03;5062680;28;45637;-67
2022/06/22 08:00:15;;;;;;;;;28.25;25.00;;;;;20.45;61.38;100746.69;5059835;28;45401;-68
2022/06/22 08:02:46;;;;;;;;;21.75;21.75;;;;;20.64;61.40;100758.78;5063321;28;45397;-70
2022/06/22 08:05:16;;;;;;;;;18.75;17.25;;;;;20.80;60.23;100747.28;5063595;28;45555;-67
2022/06/22 08:07:50;;;;;;;;;20.25;20.25;;;;;20.81;59.21;100759.19;5063820;28;45351;-67
2022/06/22 08:10:18;;;;;;;;;19.25;19.25;;;;;21.00;59.69;100755.53;5063276;28;45487;-67
2022/06/22 08:13:09;;;;;;;;;21.50;20.50;;;;;20.89;59.92;100773.59;5064142;28;45477;-68
2022/06/22 08:15:39;;;;;;;;;29.75;27.00;;;;;20.66;61.15;100776.00;5063079;28;45437;-68
2022/06/22 08:18:06;;;;;;;;;21.50;20.50;;;;;20.95;61.08;100770.00;5062742;28;45330;-68
2022/06/22 08:20:34;;;;;;;;;22.75;20.25;;;;;21.28;59.20;100774.59;5063568;28;45293;-68
2022/06/22 08:23:04;;;;;;;;;23.50;20.75;;;;;21.56;58.43;100775.13;5068937;28;45373;-68
2022/06/22 08:25:32;;;;;;;;;24.50;22.25;;;;;21.79;58.21;100776.50;5073453;28;46246;-67
2022/06/22 08:27:58;;;;;;;;;19.50;19.50;;;;;22.00;56.89;100776.19;5086720;27;45464;-67
2022/06/22 08:30:24;;;;;;;;;25.00;22.50;;;;;22.10;56.23;100771.03;5071137;27;45382;-67
2022/06/22 08:32:59;;;;;;;;;24.50;22.25;;;;;22.03;56.66;100770.22;5071186;28;45198;-67
2022/06/22 08:35:49;;;;;;;;;11.50;11.50;;;;;21.86;56.83;100761.56;5064975;28;46088;-67
2022/06/22 08:38:27;;;;;;;;;21.25;20.50;;;;;22.30;56.35;100765.34;5060769;28;45258;-67
2022/06/22 08:41:21;;;;;;;;;25.50;18.75;;;;;22.41;55.35;100757.19;5063769;28;45266;-67
2022/06/22 08:44:07;;;;;;;;;23.25;19.75;;;;;22.42;54.29;100763.56;5061597;28;45529;-68
2022/06/22 08:46:55;;;;;;;;;23.50;19.75;;;;;22.40;54.15;100758.25;5064101;28;45353;-67
2022/06/22 08:49:23;;;;;;;;;21.00;17.00;;;;;22.46;55.07;100760.09;5063678;28;45567;-68
2022/06/22 08:52:08;;;;;;;;;24.00;23.75;;;;;22.50;55.07;100755.81;5062322;28;45409;-68
2022/06/22 08:54:57;;;;;;;;;18.75;17.75;;;;;22.52;54.98;100747.28;5064184;28;45389;-68
2022/06/22 08:57:30;;;;;;;;;21.25;21.25;;;;;22.79;54.24;100747.94;5063660;28;46112;-68
2022/06/22 08:59:58;;;;;;;;;19.75;17.75;;;;;23.18;53.65;100730.84;5061795;28;45453;-68
2022/06/22 09:02:47;;;;;;;;;20.00;20.00;;;;;23.60;52.05;100754.03;5063356;28;45230;-68
2022/06/22 09:05:31;;;;;;;;;23.50;20.00;;;;;23.40;52.61;100760.88;5063550;28;45341;-68
2022/06/22 09:08:08;;;;;;;;;18.50;16.25;;;;;23.56;52.71;100763.06;5062599;28;45450;-69
2022/06/22 09:10:53;;;;;;;;;22.75;21.25;;;;;23.49;51.54;100756.75;5062087;28;45326;-67
2022/06/22 09:13:21;;;;;;;;;21.25;20.00;;;;;23.35;52.50;100758.81;5063275;28;45374;-68
2022/06/22 09:16:08;;;;;;;;;25.25;21.00;;;;;23.61;51.79;100772.34;5063902;28;45215;-69
2022/06/22 09:19:07;;;;;;;;;22.75;20.50;;;;;23.89;52.04;100771.75;5063656;28;46676;-68
2022/06/22 09:21:49;;;;;;;;;25.25;22.25;;;;;24.13;51.32;100749.63;5061897;28;45334;-68
2022/06/22 09:24:38;;;;;;;;;23.25;21.25;;;;;24.48;50.89;100747.81;5063542;28;45405;-66
2022/06/22 09:27:06;;;;;;;;;23.75;22.75;;;;;24.15;51.31;100753.03;5055632;28;45324;-68
2022/06/22 09:30:05;;;;;;;;;20.25;19.25;;;;;24.73;51.22;100751.22;5062927;28;45290;-67
2022/06/22 09:32:39;;;;;;;;;16.00;15.50;;;;;25.17;49.52;100754.50;5061723;28;45767;-67
2022/06/22 09:35:27;;;;;;;;;18.33;15.67;;;;;25.18;49.22;100742.28;5061782;28;45303;-68
2022/06/22 09:38:11;;;;;;;;;18.00;15.67;;;;;25.08;49.17;100747.59;5063587;28;45314;-68
2022/06/22 09:41:01;;;;;;;;;18.33;15.67;;;;;25.00;49.21;100753.53;5061069;28;47055;-68
2022/06/22 09:43:26;;;;;;;;;17.00;17.00;;;;;24.83;50.15;100756.19;5062772;28;45237;-66
2022/06/22 09:46:22;;;;;;;;;20.75;19.50;;;;;24.72;49.91;100759.78;5062293;28;45275;-66
2022/06/22 09:49:03;;;;;;;;;21.25;20.25;;;;;24.65;50.53;100765.47;5062155;28;45233;-68
2022/06/22 09:52:01;;;;;;;;;17.67;17.00;;;;;24.58;50.65;100759.19;5061352;28;47026;-68
2022/06/22 09:58:21;;;;;;;;;18.67;18.67;;;;;24.51;51.48;100752.91;5062180;28;45297;-67
2022/06/22 10:01:26;;;;;;;;;17.50;17.50;;;;;24.44;51.45;100754.94;5062591;28;45477;-67
2022/06/22 10:04:16;;;;;;;;;15.00;13.67;;;;;24.41;51.43;100764.59;5049214;28;45325;-67
2022/06/22 10:07:11;;;;;;;;;18.50;17.75;;;;;24.38;51.45;100775.34;5062196;28;45310;-68
2022/06/22 10:09:42;;;;;;;;;16.67;16.67;;;;;24.36;51.57;100763.63;5060997;28;45440;-68
2022/06/22 10:12:43;;;;;;;;;13.75;13.75;;;;;24.09;52.86;100754.84;5063361;28;45495;-68
2022/06/22 10:15:26;;;;;;;;;16.75;16.00;;;;;24.14;52.98;100768.00;5062669;28;45471;-68
2022/06/22 10:18:14;;;;;;;;;28.50;24.50;;;;;24.42;51.79;100771.00;5060403;28;45333;-68
2022/06/22 10:21:01;;;;;;;;;20.00;16.75;;;;;24.60;50.74;100765.34;5062229;28;45397;-68
2022/06/22 10:23:31;;;;;;;;;18.67;16.67;;;;;24.76;51.08;100759.09;5063383;28;45317;-66
2022/06/22 10:26:03;;;;;;;;;22.25;19.25;;;;;24.89;51.31;100757.16;5062587;28;45721;-68
2022/06/22 10:28:50;;;;;;;;;18.33;18.33;;;;;25.04;51.12;100757.53;5063332;28;45424;-69
2022/06/22 10:31:34;;;;;;;;;26.50;20.25;;;;;25.21;50.18;100755.69;5060834;28;45406;-69
2022/06/22 10:34:21;;;;;;;;;15.67;14.00;;;;;25.32;50.19;100752.03;5063079;28;45324;-68
2022/06/22 10:37:23;;;;;;;;;40.75;35.50;;;;;25.31;49.70;100764.25;5061994;28;45392;-67
2022/06/22 10:39:52;;;;;;;;;16.25;16.00;;;;;25.41;49.77;100753.38;5061947;28;45314;-66
2022/06/22 10:45:57;;;;;;;;;25.00;23.25;;;;;25.40;49.26;100743.31;5056986;28;45440;-67
2022/06/22 10:48:50;;;;;;;;;26.00;23.75;;;;;25.71;49.43;100747.63;5060519;28;46613;-67
2022/06/22 10:51:19;;;;;;;;;19.25;18.50;;;;;25.88;48.81;100747.66;5062113;28;45427;-68
2022/06/22 10:54:05;;;;;;;;;21.75;21.00;;;;;26.15;48.93;100740.38;5062292;28;45439;-68
2022/06/22 10:56:37;;;;;;;;;20.25;20.25;;;;;26.46;48.09;100727.00;5062433;28;45718;-66
2022/06/22 10:59:19;;;;;;;;;22.50;21.50;;;;;26.69;47.30;100735.16;5062064;28;46225;-66
2022/06/22 11:02:12;;;;;;;;;24.75;21.25;;;;;26.85;46.78;100731.53;5064373;28;45344;-67
2022/06/22 11:05:03;;;;;;;;;26.00;22.50;;;;;27.00;46.69;100719.78;5065785;28;45365;-66
2022/06/22 11:07:57;;;;;;;;;28.50;22.25;;;;;27.15;46.45;100720.00;5066082;28;45342;-68
2022/06/22 11:10:28;;;;;;;;;18.50;18.25;;;;;27.04;47.26;100724.59;5064592;28;46608;-68
2022/06/22 11:12:56;;;;;;;;;19.75;19.00;;;;;27.60;47.04;100719.78;5065250;28;45472;-68
2022/06/22 11:16:05;;;;;;;;;20.50;17.75;;;;;28.35;45.69;100715.22;5065155;28;45234;-68
2022/06/22 11:18:50;;;;;;;;;21.00;19.75;;;;;28.65;44.09;100718.25;5065802;28;45343;-68
2022/06/22 11:21:48;;;;;;;;;15.50;15.50;;;;;28.71;44.21;100708.00;5064726;28;46278;-68
2022/06/22 11:24:13;;;;;;;;;16.67;16.00;;;;;29.52;43.79;100722.44;5065280;28;45360;-67
2022/06/22 11:33:38;;;;;;;;;16.00;16.00;;;;;30.55;40.67;100726.03;5065250;28;45448;-68
2022/06/22 11:36:13;;;;;;;;;16.25;15.75;;;;;30.59;41.01;100726.34;5063751;28;45317;-68
2022/06/22 11:38:50;;;;;;;;;19.33;17.33;;;;;30.54;41.08;100730.81;5063953;28;45618;-68
2022/06/22 11:41:26;;;;;;;;;20.50;17.00;;;;;30.43;41.27;100731.06;5065402;28;45274;-68
2022/06/22 11:43:54;;;;;;;;;17.25;15.25;;;;;30.45;41.89;100737.25;5064505;28;45464;-68
2022/06/22 11:46:38;;;;;;;;;19.00;17.50;;;;;29.97;42.14;100733.81;5063335;28;45397;-68
2022/06/22 11:49:22;;;;;;;;;18.50;18.50;;;;;30.06;42.24;100734.13;5064850;28;45255;-66
2022/06/22 11:52:06;;;;;;;;;16.50;15.75;;;;;29.81;42.30;100732.06;5064995;28;45247;-68
2022/06/22 11:54:43;;;;;;;;;18.75;18.25;;;;;29.49;43.03;100723.00;5064438;28;46530;-68
2022/06/22 11:57:11;;;;;;;;;26.00;20.75;;;;;29.32;43.33;100724.03;5064778;28;45353;-68
2022/06/22 12:00:01;;;;;;;;;20.25;19.00;;;;;29.14;43.77;100723.66;5064851;28;45496;-68
2022/06/22 12:02:52;;;;;;;;;21.50;19.75;;;;;28.76;44.79;100719.22;5064961;28;45697;-68
2022/06/22 12:05:29;;;;;;;;;24.00;20.25;;;;;28.30;46.06;100727.22;5064328;28;45429;-66
2022/06/22 12:08:02;;;;;;;;;18.00;17.00;;;;;27.76;46.91;100724.41;5063135;28;45196;-68
2022/06/22 12:10:37;;;;;;;;;19.75;19.00;;;;;27.37;48.03;100712.47;5064286;28;45323;-67
2022/06/22 12:13:34;;;;;;;;;20.00;18.67;;;;;27.78;47.36;100724.13;5063238;28;45410;-68